createdAt,value
2023-05-12T00:02:03.092Z,9.98
2023-05-12T00:04:29.888Z,10.30
2023-05-12T00:06:59.063Z,11.77
2023-05-12T00:09:25.716Z,11.48
2023-05-12T00:11:52.455Z,11.27
2023-05-12T00:14:19.928Z,11.02
2023-05-12T00:16:51.594Z,10.52
2023-05-12T00:19:21.301Z,11.68
2023-05-12T00:21:48.601Z,12.57
2023-05-12T00:24:17.661Z,13.13
2023-05-12T00:26:44.465Z,13.35
2023-05-12T00:29:13.677Z,13.60
2023-05-12T00:31:40.542Z,14.25
2023-05-12T00:34:09.679Z,12.25
2023-05-12T00:36:36.498Z,11.27
2023-05-12T00:39:03.636Z,13.07
2023-05-12T00:41:30.366Z,12.35
2023-05-12T00:43:59.217Z,14.45
2023-05-12T00:46:26.793Z,13.20
2023-05-12T00:48:53.781Z,13.00
2023-05-12T00:51:20.861Z,11.77
2023-05-12T00:53:52.148Z,14.82
2023-05-12T00:56:19.765Z,14.18
2023-05-12T00:58:48.618Z,13.70
2023-05-12T01:01:15.943Z,13.00
2023-05-12T01:03:43.251Z,10.15
2023-05-12T01:06:46.481Z,12.57
2023-05-12T01:09:17.892Z,11.57
2023-05-12T01:11:44.568Z,9.18
2023-05-12T01:14:13.756Z,11.15
2023-05-12T01:16:48.188Z,9.63
2023-05-12T01:19:52.364Z,10.20
2023-05-12T01:22:19.297Z,9.68
2023-05-12T01:25:01.470Z,9.27
2023-05-12T01:27:29.316Z,11.60
2023-05-12T01:30:06.956Z,8.25
2023-05-12T01:32:34.555Z,11.05
2023-05-12T01:35:01.306Z,9.63
2023-05-12T01:37:28.303Z,8.32
2023-05-12T01:39:55.031Z,7.90
2023-05-12T01:42:22.048Z,8.68
2023-05-12T01:44:48.983Z,7.07
2023-05-12T01:47:15.997Z,8.45
2023-05-12T01:49:45.687Z,8.02
2023-05-12T01:52:12.432Z,9.27
2023-05-12T01:54:39.319Z,9.20
2023-05-12T01:57:08.558Z,6.80
2023-05-12T01:59:36.088Z,5.78
2023-05-12T02:02:03.147Z,7.90
2023-05-12T02:04:29.910Z,7.45
2023-05-12T02:06:56.560Z,6.65
2023-05-12T02:09:23.206Z,7.00
2023-05-12T02:11:52.365Z,7.63
2023-05-12T02:14:19.020Z,6.82
2023-05-12T02:16:47.228Z,7.13
2023-05-12T02:19:14.028Z,6.53
2023-05-12T02:21:40.769Z,8.30
2023-05-12T02:24:09.853Z,7.15
2023-05-12T02:26:36.508Z,6.45
2023-05-12T02:29:03.173Z,8.82
2023-05-12T02:31:29.993Z,6.80
2023-05-12T02:33:57.079Z,9.45
2023-05-12T02:36:23.733Z,7.90
2023-05-12T02:38:50.561Z,10.05
2023-05-12T02:41:17.234Z,11.05
2023-05-12T02:43:44.038Z,8.40
2023-05-12T02:46:10.780Z,12.75
2023-05-12T02:48:37.481Z,9.80
2023-05-12T02:51:04.440Z,10.80
2023-05-12T02:53:31.200Z,9.13
2023-05-12T02:56:03.324Z,9.60
2023-05-12T02:58:32.264Z,9.70
2023-05-12T03:01:07.059Z,9.43
2023-05-12T03:03:39.747Z,11.07
2023-05-12T03:06:06.887Z,12.32
2023-05-12T03:08:33.640Z,13.15
2023-05-12T03:11:00.596Z,11.40
2023-05-12T03:13:27.302Z,11.00
2023-05-12T03:15:57.134Z,11.77
2023-05-12T03:20:55.485Z,12.50
2023-05-12T03:23:22.314Z,11.55
2023-05-12T03:25:51.573Z,17.02
2023-05-12T03:28:18.322Z,13.90
2023-05-12T03:30:47.309Z,12.02
2023-05-12T03:33:16.224Z,10.43
2023-05-12T03:35:45.036Z,9.63
2023-05-12T03:38:12.164Z,13.88
2023-05-12T03:40:41.240Z,10.82
2023-05-12T03:43:07.958Z,9.10
2023-05-12T03:45:34.624Z,10.70
2023-05-12T03:48:01.392Z,9.82
2023-05-12T03:50:28.070Z,14.00
2023-05-12T03:52:56.108Z,11.85
2023-05-12T03:55:29.884Z,9.68
2023-05-12T03:57:56.633Z,8.20
2023-05-12T04:00:23.361Z,7.07
2023-05-12T04:02:50.961Z,7.13
2023-05-12T04:05:17.743Z,6.20
2023-05-12T04:07:44.449Z,7.07
2023-05-12T04:10:11.309Z,4.53
2023-05-12T04:12:38.025Z,4.20
2023-05-12T04:15:05.663Z,4.38
2023-05-12T04:17:32.408Z,4.35
2023-05-12T04:19:59.164Z,4.68
2023-05-12T04:22:28.319Z,6.38
2023-05-12T04:24:55.041Z,3.00
2023-05-12T04:27:21.683Z,3.78
2023-05-12T04:29:48.333Z,3.88
2023-05-12T04:32:18.325Z,2.70
2023-05-12T04:34:44.976Z,3.58
2023-05-12T04:37:11.643Z,3.03
2023-05-12T04:39:40.778Z,2.45
2023-05-12T04:42:07.498Z,4.78
2023-05-12T04:44:34.201Z,2.92
2023-05-12T04:47:00.954Z,6.20
2023-05-12T04:49:29.794Z,7.70
2023-05-12T04:51:56.531Z,3.50
2023-05-12T04:54:23.632Z,3.78
2023-05-12T04:56:52.771Z,2.72
2023-05-12T04:59:19.507Z,2.47
2023-05-12T05:01:46.352Z,5.50
2023-05-12T05:04:13.234Z,2.58
2023-05-12T05:06:39.931Z,2.63
2023-05-12T05:09:07.106Z,2.60
2023-05-12T05:11:33.825Z,2.10
2023-05-12T05:14:00.667Z,1.90
2023-05-12T05:16:27.427Z,1.95
2023-05-12T05:18:54.302Z,5.22
2023-05-12T05:21:21.152Z,1.58
2023-05-12T05:23:50.211Z,3.40
2023-05-12T05:26:16.898Z,2.35
2023-05-12T05:28:43.581Z,1.50
2023-05-12T05:31:18.530Z,2.00
2023-05-12T05:33:45.234Z,3.67
2023-05-12T05:36:12.001Z,3.75
2023-05-12T05:38:38.778Z,2.95
2023-05-12T05:41:06.063Z,2.28
2023-05-12T05:43:32.948Z,1.55
2023-05-12T05:45:59.780Z,1.58
2023-05-12T05:48:26.789Z,2.83
2023-05-12T05:50:54.065Z,1.70
2023-05-12T05:53:22.681Z,3.28
2023-05-12T05:55:49.756Z,1.80
2023-05-12T05:58:16.794Z,1.80
2023-05-12T06:00:46.416Z,2.00
2023-05-12T06:03:13.433Z,3.53
2023-05-12T06:05:47.491Z,2.47
2023-05-12T06:08:14.256Z,1.85
2023-05-12T06:10:41.174Z,3.00
2023-05-12T06:13:07.916Z,1.65
2023-05-12T06:15:37.384Z,1.70
2023-05-12T06:18:04.314Z,1.70
2023-05-12T06:20:33.521Z,1.55
2023-05-12T06:23:02.708Z,1.15
2023-05-12T06:25:33.196Z,3.60
2023-05-12T06:28:02.423Z,1.42
2023-05-12T06:30:29.096Z,1.63
2023-05-12T06:32:56.073Z,1.42
2023-05-12T06:35:22.814Z,2.15
2023-05-12T06:37:51.784Z,1.00
2023-05-12T06:40:18.635Z,0.80
2023-05-12T06:42:45.343Z,2.42
2023-05-12T06:45:14.554Z,0.82
2023-05-12T06:47:43.729Z,0.90
2023-05-12T06:50:10.906Z,0.82
2023-05-12T06:52:37.681Z,1.70
2023-05-12T06:55:07.242Z,1.58
2023-05-12T06:57:33.971Z,1.00
2023-05-12T07:00:02.980Z,0.77
2023-05-12T07:02:32.177Z,1.08
2023-05-12T07:04:58.875Z,4.55
2023-05-12T07:07:25.610Z,2.53
2023-05-12T07:09:52.366Z,0.60
2023-05-12T07:12:19.061Z,1.80
2023-05-12T07:14:45.763Z,1.30
2023-05-12T07:17:12.481Z,2.70
2023-05-12T07:19:43.513Z,1.50
2023-05-12T07:22:10.310Z,1.77
2023-05-12T07:24:38.409Z,2.35
2023-05-12T07:27:08.235Z,1.30
2023-05-12T07:29:34.970Z,2.00
2023-05-12T07:32:03.784Z,1.65
2023-05-12T07:34:34.630Z,1.67
2023-05-12T07:37:04.024Z,2.13
2023-05-12T07:39:32.363Z,2.25
2023-05-12T07:41:59.380Z,2.08
2023-05-12T07:44:29.132Z,2.30
2023-05-12T07:49:23.248Z,2.38
2023-05-12T07:51:50.019Z,2.10
2023-05-12T07:54:16.700Z,3.13
2023-05-12T07:56:43.426Z,2.35
2023-05-12T07:59:10.847Z,1.88
2023-05-12T08:01:40.384Z,2.10
2023-05-12T08:04:07.221Z,2.00
2023-05-12T08:06:36.471Z,2.88
2023-05-12T08:09:03.263Z,3.00
2023-05-12T08:11:29.990Z,2.38
2023-05-12T08:13:56.691Z,1.90
2023-05-12T08:16:23.716Z,2.13
2023-05-12T08:18:50.466Z,4.47
2023-05-12T08:21:19.324Z,2.17
2023-05-12T08:23:48.345Z,1.88
2023-05-12T08:26:15.031Z,1.73
2023-05-12T08:28:43.904Z,2.50
2023-05-12T08:31:10.662Z,1.80
2023-05-12T08:33:37.468Z,1.98
2023-05-12T08:36:04.500Z,1.77
2023-05-12T08:38:32.627Z,1.88
2023-05-12T08:41:18.914Z,1.58
2023-05-12T08:43:51.053Z,2.17
2023-05-12T08:46:18.386Z,1.98
2023-05-12T08:48:48.866Z,1.70
2023-05-12T08:51:15.927Z,3.28
2023-05-12T08:53:43.148Z,2.00
2023-05-12T08:58:44.769Z,4.95
2023-05-12T09:01:15.799Z,3.90
2023-05-12T09:03:42.824Z,2.03
2023-05-12T09:06:12.718Z,2.33
2023-05-12T09:08:40.849Z,4.82
2023-05-12T09:11:12.452Z,2.13
2023-05-12T09:14:00.185Z,1.75
2023-05-12T09:16:33.482Z,2.97
2023-05-12T09:19:02.782Z,2.03
2023-05-12T09:21:35.938Z,2.40
2023-05-12T09:24:06.608Z,2.25
2023-05-12T09:26:46.356Z,3.67
2023-05-12T09:31:55.210Z,2.03
2023-05-12T09:34:35.457Z,2.30
2023-05-12T09:37:05.380Z,2.70
2023-05-12T09:39:34.894Z,2.92
2023-05-12T09:42:01.842Z,5.57
2023-05-12T09:44:31.705Z,3.65
2023-05-12T09:47:07.164Z,4.07
2023-05-12T09:49:33.911Z,2.72
2023-05-12T09:52:05.001Z,4.43
2023-05-12T09:54:33.595Z,2.28
2023-05-12T09:57:02.419Z,2.05
2023-05-12T09:59:34.819Z,3.00
2023-05-12T10:02:04.576Z,2.28
2023-05-12T10:07:14.563Z,2.13
2023-05-12T10:09:42.802Z,3.27
2023-05-12T10:12:10.335Z,3.00
2023-05-12T10:14:37.822Z,3.17
2023-05-12T10:17:09.609Z,4.82
2023-05-12T10:19:36.838Z,2.30
2023-05-12T10:22:05.394Z,2.33
2023-05-12T10:24:32.689Z,3.08
2023-05-12T10:27:01.310Z,3.70
2023-05-12T10:29:29.795Z,2.30
2023-05-12T10:32:01.215Z,2.38
2023-05-12T10:34:33.944Z,2.38
2023-05-12T10:37:01.208Z,2.30
2023-05-12T10:39:29.877Z,3.40
2023-05-12T10:42:06.488Z,2.17
2023-05-12T10:44:33.490Z,3.15
2023-05-12T10:47:00.369Z,4.40
2023-05-12T10:49:37.403Z,4.25
2023-05-12T10:52:04.263Z,3.15
2023-05-12T10:54:39.898Z,2.70
2023-05-12T10:57:18.426Z,3.03
2023-05-12T10:59:50.882Z,3.53
2023-05-12T11:02:30.828Z,2.22
2023-05-12T11:05:01.862Z,2.67
2023-05-12T11:07:34.691Z,2.65
2023-05-12T11:10:08.305Z,2.38
2023-05-12T11:12:36.247Z,2.25
2023-05-12T11:15:07.119Z,1.98
2023-05-12T11:17:34.307Z,5.18
2023-05-12T11:20:01.517Z,2.38
2023-05-12T11:22:28.694Z,2.00
2023-05-12T11:24:55.772Z,3.90
2023-05-12T11:27:27.047Z,1.92
2023-05-12T11:29:59.253Z,2.53
2023-05-12T11:32:26.266Z,3.28
2023-05-12T11:34:55.381Z,2.47
2023-05-12T11:37:22.782Z,1.73
2023-05-12T11:39:49.478Z,2.00
2023-05-12T11:42:19.784Z,3.75
2023-05-12T11:44:50.802Z,2.10
2023-05-12T11:49:57.451Z,3.00
2023-05-12T11:52:29.660Z,2.38
2023-05-12T11:55:00.730Z,2.03
2023-05-12T11:57:32.425Z,2.78
2023-05-12T12:00:01.673Z,6.07
2023-05-12T12:02:28.924Z,5.40
2023-05-12T12:04:57.691Z,2.33
2023-05-12T12:07:37.938Z,2.77
2023-05-12T12:10:16.759Z,2.08
2023-05-12T12:12:45.949Z,8.87
2023-05-12T12:15:17.585Z,2.60
2023-05-12T12:17:47.996Z,1.92
2023-05-12T12:20:19.825Z,3.05
2023-05-12T12:22:46.485Z,4.50
2023-05-12T12:25:13.169Z,2.53
2023-05-12T12:27:39.903Z,3.13
2023-05-12T12:30:09.584Z,2.45
2023-05-12T12:35:06.317Z,2.97
2023-05-12T12:37:33.479Z,4.13
2023-05-12T12:40:06.879Z,2.30
2023-05-12T12:42:40.449Z,2.20
2023-05-12T12:45:10.555Z,2.83
2023-05-12T12:47:38.908Z,2.38
2023-05-12T12:50:10.569Z,2.45
2023-05-12T12:52:38.568Z,2.42
2023-05-12T12:55:09.796Z,2.63
2023-05-12T12:57:36.683Z,2.78
2023-05-12T13:00:04.758Z,3.65
2023-05-12T13:02:31.537Z,3.42
2023-05-12T13:04:58.330Z,3.00
2023-05-12T13:07:25.828Z,4.35
2023-05-12T13:09:52.541Z,2.70
2023-05-12T13:12:21.458Z,2.30
2023-05-12T13:14:49.648Z,3.45
2023-05-12T13:17:19.017Z,2.30
2023-05-12T13:19:45.852Z,2.97
2023-05-12T13:22:12.640Z,2.70
2023-05-12T13:24:41.569Z,2.67
2023-05-12T13:27:10.514Z,2.30
2023-05-12T13:29:37.228Z,4.40
2023-05-12T13:32:04.018Z,2.60
2023-05-12T13:34:30.682Z,5.10
2023-05-12T13:36:59.852Z,2.55
2023-05-12T13:39:26.522Z,3.20
2023-05-12T13:41:53.209Z,2.45
2023-05-12T13:44:19.906Z,2.67
2023-05-12T13:46:46.681Z,2.90
2023-05-12T13:49:13.608Z,3.25
2023-05-12T13:51:42.498Z,3.13
2023-05-12T13:54:09.172Z,2.50
2023-05-12T13:56:42.926Z,2.28
2023-05-12T13:59:13.206Z,2.38
2023-05-12T14:01:40.005Z,2.20
2023-05-12T14:04:09.153Z,2.35
2023-05-12T14:06:38.274Z,2.55
2023-05-12T14:09:07.723Z,2.38
2023-05-12T14:11:35.387Z,3.30
2023-05-12T14:14:06.563Z,2.17
2023-05-12T14:16:37.781Z,2.00
2023-05-12T14:19:04.561Z,2.58
2023-05-12T14:21:31.285Z,2.15
2023-05-12T14:23:58.138Z,2.10
2023-05-12T14:26:28.205Z,2.58
2023-05-12T14:28:55.032Z,3.28
2023-05-12T14:31:24.096Z,3.38
2023-05-12T14:33:52.992Z,3.95
2023-05-12T14:36:22.339Z,2.25
2023-05-12T14:38:51.353Z,2.50
2023-05-12T14:41:18.089Z,2.22
2023-05-12T14:43:44.750Z,2.40
2023-05-12T14:46:13.837Z,5.78
2023-05-12T14:48:42.954Z,3.15
2023-05-12T14:51:09.679Z,2.08
2023-05-12T14:53:38.652Z,3.30
2023-05-12T14:56:06.176Z,3.83
2023-05-12T14:58:32.860Z,2.50
2023-05-12T15:01:01.892Z,2.80
2023-05-12T15:03:28.875Z,2.58
2023-05-12T15:06:05.969Z,2.30
2023-05-12T15:08:35.726Z,2.83
2023-05-12T15:11:02.580Z,2.00
2023-05-12T15:13:31.563Z,2.13
2023-05-12T15:15:58.313Z,2.50
2023-05-12T15:18:25.058Z,2.88
2023-05-12T15:20:51.973Z,3.33
2023-05-12T15:23:25.640Z,2.40
2023-05-12T15:25:54.827Z,2.30
2023-05-12T15:28:21.588Z,2.65
2023-05-12T15:30:56.248Z,6.03
2023-05-12T15:33:25.637Z,4.05
2023-05-12T15:35:52.469Z,3.45
2023-05-12T15:38:19.306Z,4.53
2023-05-12T15:40:46.061Z,7.82
2023-05-12T15:43:13.100Z,4.00
2023-05-12T15:45:39.819Z,3.30
2023-05-12T15:48:08.719Z,2.53
2023-05-12T15:50:36.431Z,3.08
2023-05-12T15:53:03.117Z,2.80
2023-05-12T15:55:31.988Z,2.10
2023-05-12T15:58:01.334Z,2.47
2023-05-12T16:00:28.405Z,6.05
2023-05-12T16:02:55.331Z,4.28
2023-05-12T16:05:23.975Z,2.10
2023-05-12T16:07:50.646Z,3.25
2023-05-12T16:10:17.509Z,2.35
2023-05-12T16:12:50.057Z,2.45
2023-05-12T16:15:16.907Z,2.72
2023-05-12T16:17:46.318Z,2.40
2023-05-12T16:20:15.719Z,3.45
2023-05-12T16:22:42.473Z,5.68
2023-05-12T16:25:09.426Z,2.50
2023-05-12T16:27:36.751Z,3.70
2023-05-12T16:30:08.690Z,2.53
2023-05-12T16:32:35.414Z,2.53
2023-05-12T16:35:02.292Z,2.97
2023-05-12T16:37:31.604Z,2.45
2023-05-12T16:39:58.611Z,2.35
2023-05-12T16:42:27.644Z,2.42
2023-05-12T16:44:54.775Z,2.30
2023-05-12T16:47:21.492Z,4.43
2023-05-12T16:49:53.137Z,2.58
2023-05-12T16:52:20.251Z,2.85
2023-05-12T16:54:47.432Z,2.33
2023-05-12T16:57:17.108Z,4.82
2023-05-12T16:59:47.946Z,2.60
2023-05-12T17:02:17.322Z,2.33
2023-05-12T17:04:44.715Z,2.67
2023-05-12T17:07:13.990Z,2.20
2023-05-12T17:09:40.881Z,2.47
2023-05-12T17:12:08.563Z,4.45
2023-05-12T17:14:35.364Z,2.33
2023-05-12T17:17:02.336Z,2.20
2023-05-12T17:19:29.253Z,2.40
2023-05-12T17:21:56.107Z,2.58
2023-05-12T17:24:22.829Z,2.67
2023-05-12T17:26:49.711Z,3.30
2023-05-12T17:29:17.001Z,2.60
2023-05-12T17:31:43.760Z,3.50
2023-05-12T17:34:10.679Z,2.35
2023-05-12T17:36:37.376Z,2.83
2023-05-12T17:39:04.193Z,3.45
2023-05-12T17:41:30.896Z,2.45
2023-05-12T17:43:57.564Z,2.75
2023-05-12T17:46:26.477Z,6.47
2023-05-12T17:48:53.315Z,2.53
2023-05-12T17:51:20.028Z,3.55
2023-05-12T17:53:46.738Z,2.53
2023-05-12T17:56:13.459Z,4.00
2023-05-12T17:58:40.154Z,4.45
2023-05-12T18:01:09.180Z,2.35
2023-05-12T18:03:36.810Z,8.15
2023-05-12T18:06:05.855Z,4.25
2023-05-12T18:08:32.683Z,2.92
2023-05-12T18:10:59.444Z,3.35
2023-05-12T18:13:26.173Z,3.08
2023-05-12T18:15:52.880Z,2.65
2023-05-12T18:18:19.674Z,3.70
2023-05-12T18:20:46.473Z,4.85
2023-05-12T18:23:15.435Z,3.20
2023-05-12T18:25:42.869Z,2.65
2023-05-12T18:28:16.743Z,3.37
2023-05-12T18:30:43.528Z,4.13
2023-05-12T18:33:10.513Z,3.15
2023-05-12T18:35:39.744Z,3.22
2023-05-12T18:38:07.128Z,6.47
2023-05-12T18:40:36.136Z,2.47
2023-05-12T18:43:02.838Z,3.92
2023-05-12T18:45:29.562Z,3.25
2023-05-12T18:47:56.592Z,3.10
2023-05-12T18:50:23.634Z,3.10
2023-05-12T18:52:55.034Z,4.95
2023-05-12T18:55:22.088Z,5.30
2023-05-12T18:57:48.828Z,2.65
2023-05-12T19:00:18.285Z,3.25
2023-05-12T19:02:45.711Z,2.70
2023-05-12T19:05:15.033Z,5.10
2023-05-12T19:07:41.777Z,3.38
2023-05-12T19:10:12.684Z,3.10
2023-05-12T19:12:39.425Z,3.03
2023-05-12T19:15:06.678Z,3.17
2023-05-12T19:17:38.172Z,3.42
2023-05-12T19:20:05.593Z,3.35
2023-05-12T19:22:32.298Z,3.10
2023-05-12T19:25:01.407Z,2.70
2023-05-12T19:27:28.252Z,4.60
2023-05-12T19:29:55.202Z,4.03
2023-05-12T19:32:22.180Z,4.30
2023-05-12T19:34:52.221Z,5.78
2023-05-12T19:37:21.929Z,5.20
2023-05-12T19:42:15.461Z,3.47
2023-05-12T19:44:44.559Z,6.07
2023-05-12T19:47:12.675Z,3.65
2023-05-12T19:49:41.708Z,4.13
2023-05-12T19:52:08.697Z,3.40
2023-05-12T19:54:36.092Z,3.72
2023-05-12T19:57:02.926Z,3.55
2023-05-12T19:59:29.654Z,3.13
2023-05-12T20:01:58.818Z,3.53
2023-05-12T20:04:25.805Z,4.40
2023-05-12T20:06:55.057Z,4.50
2023-05-12T20:09:23.145Z,3.67
2023-05-12T20:11:52.234Z,4.30
2023-05-12T20:14:21.188Z,3.92
2023-05-12T20:16:48.076Z,4.20
2023-05-12T20:19:15.068Z,3.40
2023-05-12T20:21:44.250Z,3.63
2023-05-12T20:24:13.589Z,3.30
2023-05-12T20:26:40.732Z,5.03
2023-05-12T20:29:07.473Z,4.65
2023-05-12T20:31:34.414Z,4.32
2023-05-12T20:34:01.285Z,3.97
2023-05-12T20:36:28.039Z,4.78
2023-05-12T20:38:54.759Z,7.25
2023-05-12T20:41:23.707Z,6.63
2023-05-12T20:43:50.389Z,7.35
2023-05-12T20:46:17.240Z,5.35
2023-05-12T20:48:44.061Z,6.50
2023-05-12T20:51:12.058Z,5.45
2023-05-12T20:53:43.475Z,5.88
2023-05-12T20:56:10.659Z,4.65
2023-05-12T20:58:37.465Z,3.80
2023-05-12T21:01:04.290Z,3.92
2023-05-12T21:03:32.751Z,7.20
2023-05-12T21:05:59.754Z,4.93
2023-05-12T21:08:26.665Z,8.30
2023-05-12T21:10:54.507Z,3.65
2023-05-12T21:13:21.453Z,3.92
2023-05-12T21:15:51.371Z,4.88
2023-05-12T21:18:18.060Z,5.25
2023-05-12T21:20:47.087Z,3.83
2023-05-12T21:23:13.904Z,3.38
2023-05-12T21:25:42.901Z,4.18
2023-05-12T21:28:09.601Z,5.68
2023-05-12T21:30:38.878Z,4.20
2023-05-12T21:33:05.838Z,4.82
2023-05-12T21:35:32.600Z,5.45
2023-05-12T21:37:59.268Z,5.90
2023-05-12T21:40:26.284Z,5.75
2023-05-12T21:42:53.018Z,4.78
2023-05-12T21:45:21.432Z,6.00
2023-05-12T21:47:50.143Z,7.65
2023-05-12T21:50:21.708Z,7.15
2023-05-12T21:52:49.581Z,5.97
2023-05-12T21:55:16.685Z,4.78
2023-05-12T21:57:43.389Z,4.07
2023-05-12T22:00:14.665Z,9.18
2023-05-12T22:02:41.573Z,5.10
2023-05-12T22:05:08.970Z,4.97
2023-05-12T22:07:35.774Z,5.05
2023-05-12T22:10:03.672Z,4.80
2023-05-12T22:12:30.478Z,5.82
2023-05-12T22:14:57.176Z,6.57
2023-05-12T22:17:23.904Z,4.60
2023-05-12T22:19:50.868Z,5.65
2023-05-12T22:22:17.804Z,4.30
2023-05-12T22:24:44.461Z,5.32
2023-05-12T22:27:11.604Z,4.25
2023-05-12T22:29:38.719Z,5.70
2023-05-12T22:32:05.889Z,4.50
2023-05-12T22:34:32.949Z,4.30
2023-05-12T22:37:00.041Z,5.60
2023-05-12T22:39:26.755Z,4.82
2023-05-12T22:41:55.969Z,4.47
2023-05-12T22:44:23.057Z,5.00
2023-05-12T22:46:50.175Z,7.20
2023-05-12T22:49:17.311Z,5.38
2023-05-12T22:51:44.380Z,3.97
2023-05-12T22:54:11.511Z,9.68
2023-05-12T22:56:39.478Z,5.22
2023-05-12T22:59:09.137Z,5.38
2023-05-12T23:01:39.652Z,4.63
2023-05-12T23:04:06.784Z,4.07
2023-05-12T23:06:33.659Z,5.65
2023-05-12T23:09:02.859Z,6.30
2023-05-12T23:11:29.541Z,4.82
2023-05-12T23:13:56.238Z,4.78
2023-05-12T23:16:23.670Z,5.93
2023-05-12T23:18:50.502Z,4.68
2023-05-12T23:21:17.244Z,4.38
2023-05-12T23:23:44.042Z,4.80
2023-05-12T23:26:10.911Z,5.15
2023-05-12T23:28:37.676Z,4.70
2023-05-12T23:31:04.446Z,6.60
2023-05-12T23:33:33.366Z,6.35
2023-05-12T23:36:00.075Z,6.83
2023-05-12T23:38:26.850Z,6.88
2023-05-12T23:40:53.581Z,5.40
2023-05-12T23:43:22.501Z,6.00
2023-05-12T23:45:49.380Z,4.30
2023-05-12T23:48:16.095Z,5.18
2023-05-12T23:50:43.081Z,4.40
2023-05-12T23:53:12.336Z,6.80
2023-05-12T23:55:39.075Z,5.60
2023-05-12T23:58:10.646Z,8.07
